Time;durP1;ratioP1;P1;durP2;ratioP2;P2;SDS_P1;SDS_P2;PMS_P1;PMS_P2;Temp;Humidity;BMP_temperature;BMP_pressure;BME280_temperature;BME280_humidity;BME280_pressure;Samples;Min_cycle;Max_cycle;Signal;HPM_P1;HPM_P2
2023/10/17 00:03:54;;;;;;;6.15;3.03;;;;;;;5.79;56.90;98256.25;10399905;28;20053;-71
2023/10/17 00:09:21;;;;;;;6.82;2.85;;;;;;;5.78;57.18;98249.97;10386585;28;20168;-71
2023/10/17 00:20:17;;;;;;;5.75;2.88;;;;;;;5.68;57.12;98247.00;10427766;28;20092;-70
2023/10/17 00:25:42;;;;;;;7.47;2.85;;;;;;;5.55;57.05;98240.88;10407726;28;20407;-70
2023/10/17 00:31:04;;;;;;;8.27;3.25;;;;;;;5.58;58.01;98248.06;10421111;28;20096;-71
2023/10/17 00:36:26;;;;;;;8.15;3.72;;;;;;;5.64;57.43;98238.31;10406331;28;20041;-71
2023/10/17 00:41:52;;;;;;;6.20;3.75;;;;;;;5.70;57.61;98247.22;10392256;28;20042;-71
2023/10/17 00:47:18;;;;;;;9.35;4.60;;;;;;;5.73;57.73;98243.34;10406906;28;20042;-71
2023/10/17 00:52:40;;;;;;;7.55;3.72;;;;;;;5.69;57.51;98240.19;10406602;28;20403;-70
2023/10/17 00:58:03;;;;;;;10.18;3.60;;;;;;;5.56;58.25;98234.03;10405515;28;20408;-70
2023/10/17 01:03:25;;;;;;;5.85;2.70;;;;;;;5.51;58.53;98223.88;10391650;28;20404;-71
2023/10/17 01:08:46;;;;;;;6.45;3.42;;;;;;;5.50;58.71;98228.69;10377781;28;20046;-71
2023/10/17 01:14:09;;;;;;;8.02;3.60;;;;;;;5.50;58.86;98228.69;10405141;28;20074;-71
2023/10/17 01:19:33;;;;;;;7.10;3.65;;;;;;;5.45;58.38;98230.31;10391267;28;20385;-71
2023/10/17 01:24:56;;;;;;;5.78;3.65;;;;;;;5.29;59.11;98223.25;10401990;28;20057;-71
2023/10/17 01:30:17;;;;;;;7.85;3.80;;;;;;;5.23;59.26;98225.44;10390860;28;20065;-71
2023/10/17 01:35:43;;;;;;;7.70;4.35;;;;;;;5.26;59.03;98223.59;10389187;28;20042;-70
2023/10/17 01:41:05;;;;;;;6.72;4.05;;;;;;;5.12;58.85;98229.28;10404547;28;20050;-71
2023/10/17 01:46:28;;;;;;;11.85;5.15;;;;;;;5.09;59.52;98224.06;10403742;28;20045;-71
2023/10/17 01:51:49;;;;;;;10.77;5.53;;;;;;;5.25;59.50;98211.06;10418026;28;20426;-71
2023/10/17 01:57:12;;;;;;;11.60;5.15;;;;;;;5.35;60.10;98217.53;10362462;28;20495;-71
2023/10/17 02:02:34;;;;;;;8.87;4.73;;;;;;;5.34;59.54;98225.13;10403015;28;20056;-71
2023/10/17 02:07:55;;;;;;;11.93;5.30;;;;;;;5.34;60.20;98222.34;10375322;28;20502;-71
2023/10/17 02:13:17;;;;;;;9.55;4.50;;;;;;;5.29;59.77;98223.25;10402731;28;20049;-71
2023/10/17 02:18:38;;;;;;;7.88;4.60;;;;;;;5.18;59.99;98209.72;10375393;28;20049;-71
2023/10/17 02:24:01;;;;;;;11.90;5.68;;;;;;;5.15;59.68;98213.59;10402400;28;20041;-71
2023/10/17 02:29:26;;;;;;;10.57;5.53;;;;;;;5.18;60.13;98212.50;10388131;28;20048;-71
2023/10/17 02:34:48;;;;;;;14.38;5.70;;;;;;;5.16;60.41;98217.84;10402568;28;20111;-71
2023/10/17 02:40:16;;;;;;;11.65;6.35;;;;;;;5.09;60.28;98210.97;10402874;28;20120;-71
2023/10/17 02:45:41;;;;;;;13.07;5.95;;;;;;;4.99;60.27;98220.34;10389278;28;20529;-70
2023/10/17 02:51:03;;;;;;;17.35;7.47;;;;;;;4.92;60.81;98216.22;10405231;28;20415;-71
2023/10/17 02:56:25;;;;;;;21.67;7.38;;;;;;;4.97;61.08;98206.31;10391472;28;20041;-71
2023/10/17 03:01:53;;;;;;;16.80;6.97;;;;;;;5.00;60.87;98210.75;10403959;28;20053;-71
2023/10/17 03:07:15;;;;;;;15.50;7.15;;;;;;;4.94;61.91;98216.44;10434513;28;20045;-71
2023/10/17 03:12:50;;;;;;;17.67;7.07;;;;;;;4.86;61.93;98205.34;10394069;28;20467;-72
2023/10/17 03:18:15;;;;;;;21.07;8.03;;;;;;;4.79;61.04;98217.09;10392539;28;20049;-71
2023/10/17 03:23:37;;;;;;;15.65;6.57;;;;;;;4.79;61.76;98213.59;10390321;28;20139;-70
2023/10/17 03:29:00;;;;;;;13.38;6.68;;;;;;;4.77;61.58;98208.59;10401168;28;20045;-71
2023/10/17 03:34:34;;;;;;;17.15;7.35;;;;;;;4.77;61.67;98211.38;10373514;28;20049;-71
2023/10/17 03:40:00;;;;;;;16.60;7.03;;;;;;;4.67;61.61;98213.16;10402364;28;20402;-71
2023/10/17 03:56:11;;;;;;;15.30;7.20;;;;;;;4.37;62.25;98199.88;10415023;28;20045;-71
2023/10/17 04:01:32;;;;;;;19.92;8.05;;;;;;;4.34;62.95;98200.94;10393316;28;20293;-73
2023/10/17 04:06:56;;;;;;;15.02;7.57;;;;;;;4.41;62.70;98196.75;10394120;28;20049;-71
2023/10/17 04:12:21;;;;;;;14.13;6.80;;;;;;;4.47;63.01;98200.13;10407758;28;20400;-70
2023/10/17 04:17:46;;;;;;;14.57;6.45;;;;;;;4.54;62.27;98193.91;10407891;28;20510;-71
2023/10/17 04:23:21;;;;;;;13.32;6.60;;;;;;;4.55;62.02;98192.63;10381100;28;20495;-71
2023/10/17 04:28:43;;;;;;;16.00;7.03;;;;;;;4.51;62.85;98194.97;10408774;28;20118;-71
2023/10/17 04:34:07;;;;;;;14.35;6.90;;;;;;;4.49;62.97;98190.00;10406848;28;20100;-71
2023/10/17 04:39:37;;;;;;;13.53;7.57;;;;;;;4.48;63.11;98196.06;10393653;28;20046;-71
2023/10/17 04:45:19;;;;;;;14.30;6.80;;;;;;;4.50;63.07;98187.97;10405898;28;20042;-71
2023/10/17 04:50:45;;;;;;;14.02;7.13;;;;;;;4.44;62.94;98201.94;10395922;28;20048;-71
2023/10/17 04:56:11;;;;;;;15.52;7.40;;;;;;;4.31;63.87;98211.06;10393727;28;20037;-71
2023/10/17 05:01:35;;;;;;;16.95;8.02;;;;;;;4.20;63.28;98205.81;10406560;28;20119;-70
2023/10/17 06:20:12;;;;;;;15.65;9.18;;;;;;;15.38;53.84;98250.97;10405079;28;20052;-71
2023/10/17 06:37:01;;;;;;;19.42;9.57;;;;;;;16.58;47.46;98272.28;10404448;28;20041;-72
2023/10/17 06:42:31;;;;;;;14.68;8.60;;;;;;;18.60;41.37;98273.59;10390099;28;20445;-71
2023/10/17 06:47:59;;;;;;;14.38;8.70;;;;;;;21.25;38.74;98276.25;10402726;28;20380;-71
2023/10/17 06:53:27;;;;;;;12.32;7.75;;;;;;;25.96;33.86;98266.53;10415733;28;20107;-72
2023/10/17 06:58:49;;;;;;;10.85;7.10;;;;;;;30.59;26.42;98272.09;10400594;28;20046;-72
2023/10/17 07:04:11;;;;;;;9.38;6.88;;;;;;;31.28;22.16;98286.22;10373801;28;20050;-72
2023/10/17 07:09:37;;;;;;;;;;;;;;;32.24;18.29;98291.94;10374144;28;20103;-72
2023/10/17 07:15:00;;;;;;;9.35;6.13;;;;;;;31.51;17.34;98293.25;10414338;28;19944;-72
2023/10/17 07:21:08;;;;;;;10.23;5.93;;;;;;;32.69;16.09;98303.69;10387262;28;20057;-72
2023/10/17 07:26:17;;;;;;;11.20;6.40;;;;;;;32.10;15.91;98303.59;10394327;28;20072;-72
2023/10/17 07:31:38;;;;;;;8.93;6.50;;;;;;;32.09;15.68;98320.22;10400871;28;20045;-72
2023/10/17 07:37:11;;;;;;;13.85;6.95;;;;;;;33.13;14.56;98306.81;10423392;28;20121;-72
2023/10/17 07:42:40;;;;;;;10.20;6.22;;;;;;;34.98;13.76;98318.84;10398170;28;20081;-72
2023/10/17 07:48:27;;;;;;;14.38;6.47;;;;;;;34.90;12.26;98310.31;10409678;28;20045;-72
2023/10/17 07:53:48;;;;;;;9.60;5.68;;;;;;;36.45;11.31;98305.94;10396870;28;20061;-73
2023/10/17 07:59:15;;;;;;;10.63;5.47;;;;;;;37.43;11.03;98295.06;10407603;28;20045;-73
2023/10/17 08:04:37;;;;;;;8.68;5.32;;;;;;;38.87;9.75;98298.16;10421901;28;20049;-74
2023/10/17 08:09:58;;;;;;;9.02;5.93;;;;;;;38.69;9.88;98293.72;10407450;28;20053;-74
2023/10/17 08:15:22;;;;;;;8.93;6.18;;;;;;;36.59;10.45;98291.72;10407046;28;20496;-74
2023/10/17 08:26:17;;;;;;;9.13;5.30;;;;;;;37.00;10.11;98316.75;10381489;28;20052;-74
2023/10/17 08:31:44;;;;;;;9.68;6.00;;;;;;;35.05;10.78;98304.94;10406708;28;20053;-73
2023/10/17 08:37:07;;;;;;;11.85;5.35;;;;;;;33.58;11.98;98298.19;10420759;28;20037;-74
2023/10/17 08:42:34;;;;;;;9.32;5.75;;;;;;;33.48;12.50;98293.28;10406353;28;20095;-74
2023/10/17 08:48:00;;;;;;;6.13;4.63;;;;;;;32.59;12.71;98289.38;10406316;28;20502;-72
2023/10/17 08:53:21;;;;;;;6.95;5.32;;;;;;;31.77;13.47;98297.41;10392574;28;20065;-73
2023/10/17 08:58:43;;;;;;;8.23;6.28;;;;;;;35.11;12.12;98277.97;10420040;28;20056;-74
2023/10/17 09:04:04;;;;;;;8.20;6.13;;;;;;;35.99;10.89;98286.03;10419559;28;20614;-74
2023/10/17 09:09:28;;;;;;;11.68;5.88;;;;;;;34.70;11.55;98278.84;10391066;28;20045;-73
2023/10/17 09:14:49;;;;;;;9.70;5.97;;;;;;;35.23;11.39;98271.91;10378039;28;20045;-74
2023/10/17 09:20:16;;;;;;;12.68;6.40;;;;;;;33.42;11.97;98260.84;10390689;28;20519;-73
2023/10/17 09:25:38;;;;;;;8.93;5.75;;;;;;;35.23;11.99;98261.03;10419012;28;20060;-73
2023/10/17 09:31:06;;;;;;;10.70;6.18;;;;;;;31.84;12.98;98264.16;10418548;28;20045;-74
2023/10/17 09:36:27;;;;;;;10.93;6.32;;;;;;;31.33;13.55;98264.53;10391770;28;20049;-74
2023/10/17 09:41:48;;;;;;;8.38;5.75;;;;;;;30.39;14.03;98250.56;10403811;28;20046;-74
2023/10/17 09:47:10;;;;;;;9.85;5.30;;;;;;;28.48;15.12;98256.88;10403500;28;20048;-73
2023/10/17 09:52:31;;;;;;;8.43;4.25;;;;;;;27.82;15.84;98245.69;10389643;28;20046;-74
2023/10/17 09:57:56;;;;;;;;;;;;;;;26.48;16.57;98265.09;10402488;28;20594;-70
2023/10/17 10:03:18;;;;;;;10.48;5.40;;;;;;;25.12;18.00;98255.09;10417352;28;19925;-70
2023/10/17 10:08:39;;;;;;;12.68;6.38;;;;;;;24.57;18.84;98227.63;10388898;28;20041;-70
2023/10/17 10:14:03;;;;;;;11.82;7.00;;;;;;;23.52;19.72;98216.00;10388660;28;20503;-70
2023/10/17 10:19:27;;;;;;;10.20;6.30;;;;;;;22.81;20.67;98220.63;10402995;28;20122;-70
2023/10/17 10:25:05;;;;;;;9.15;5.38;;;;;;;23.89;21.18;98209.06;10402287;28;21031;-70
2023/10/17 10:30:31;;;;;;;6.57;4.20;;;;;;;24.77;20.46;98188.75;10402102;28;20488;-70
2023/10/17 10:35:52;;;;;;;7.38;3.78;;;;;;;23.88;20.43;98195.50;10416031;28;20412;-70
2023/10/17 10:41:17;;;;;;;5.07;3.90;;;;;;;22.64;20.99;98181.00;10387774;28;20056;-70
2023/10/17 10:46:38;;;;;;;7.18;4.53;;;;;;;21.36;22.67;98181.53;10375402;28;20450;-69
2023/10/17 10:51:59;;;;;;;7.05;4.45;;;;;;;20.62;23.49;98171.91;10400890;28;20125;-70
2023/10/17 10:57:28;;;;;;;8.48;3.63;;;;;;;19.58;24.28;98164.53;10400828;28;20087;-70
2023/10/17 11:02:49;;;;;;;5.93;3.40;;;;;;;18.58;25.30;98161.16;10400385;28;20053;-71
2023/10/17 11:08:09;;;;;;;8.85;3.65;;;;;;;18.18;27.12;98160.13;10373088;28;20044;-70
2023/10/17 11:13:34;;;;;;;7.10;3.75;;;;;;;17.59;26.99;98157.44;10373399;28;20050;-70
2023/10/17 11:18:55;;;;;;;5.57;3.53;;;;;;;16.48;28.40;98161.16;10386800;28;20045;-70
2023/10/17 11:24:17;;;;;;;7.60;3.60;;;;;;;16.79;28.91;98150.09;10400554;28;20046;-71
2023/10/17 11:29:38;;;;;;;6.97;3.45;;;;;;;16.35;29.45;98145.72;10372994;28;20037;-70
2023/10/17 11:35:06;;;;;;;6.80;3.20;;;;;;;15.37;30.24;98134.19;10400238;28;20065;-70
2023/10/17 11:40:44;;;;;;;6.53;3.45;;;;;;;15.32;31.06;98130.41;10401266;28;20056;-70
2023/10/17 11:46:12;;;;;;;6.40;3.30;;;;;;;15.23;30.71;98131.28;10401538;28;20064;-71
2023/10/17 11:51:33;;;;;;;6.50;2.80;;;;;;;15.31;31.53;98128.19;10401491;28;20054;-71
2023/10/17 11:56:57;;;;;;;4.72;2.80;;;;;;;14.99;31.44;98119.44;10374078;28;20065;-71
2023/10/17 12:02:18;;;;;;;7.63;2.47;;;;;;;14.44;32.81;98113.47;10373461;28;20403;-71
2023/10/17 12:07:42;;;;;;;7.85;2.75;;;;;;;14.39;33.12;98113.84;10386473;28;20373;-70
2023/10/17 12:13:07;;;;;;;4.63;2.28;;;;;;;14.45;33.49;98117.75;10400250;28;20045;-71
2023/10/17 12:18:29;;;;;;;4.60;2.55;;;;;;;14.27;33.84;98094.94;10400299;28;20046;-72
2023/10/17 12:23:50;;;;;;;7.07;2.92;;;;;;;13.97;33.90;98088.25;10407111;28;20115;-71
2023/10/17 12:29:12;;;;;;;6.30;2.33;;;;;;;13.90;34.56;98094.13;10421461;28;20072;-71
2023/10/17 12:34:34;;;;;;;3.35;2.28;;;;;;;13.67;34.73;98100.44;10379226;28;20033;-71
2023/10/17 12:39:54;;;;;;;6.75;2.50;;;;;;;13.99;35.21;98096.06;10392862;28;20081;-71
2023/10/17 12:45:17;;;;;;;6.22;2.35;;;;;;;13.77;34.88;98087.03;10420938;28;20044;-71
2023/10/17 12:50:44;;;;;;;4.75;1.75;;;;;;;13.66;34.89;98084.97;10393774;28;20060;-70
2023/10/17 12:56:06;;;;;;;;;;;;;;;13.51;35.30;98088.22;10406271;28;20539;-71
2023/10/17 13:01:28;;;;;;;7.63;2.80;;;;;;;13.35;36.08;98079.56;10420025;28;19921;-71
2023/10/17 13:06:53;;;;;;;5.95;2.10;;;;;;;13.46;35.93;98084.47;10405475;28;20099;-70
2023/10/17 13:12:14;;;;;;;8.93;2.47;;;;;;;13.36;36.00;98084.56;10405755;28;20045;-71
2023/10/17 13:17:35;;;;;;;3.97;2.50;;;;;;;13.16;36.19;98072.06;10391397;28;20092;-71
2023/10/17 13:23:02;;;;;;;6.15;2.20;;;;;;;12.80;36.59;98071.22;10391441;28;20045;-71
2023/10/17 13:28:27;;;;;;;5.18;2.60;;;;;;;12.96;37.08;98065.19;10419152;28;20075;-72
2023/10/17 13:33:53;;;;;;;4.65;2.83;;;;;;;12.82;36.97;98068.53;10390795;28;20033;-71
2023/10/17 13:39:15;;;;;;;6.50;3.08;;;;;;;12.76;37.75;98070.25;10405250;28;20084;-71
2023/10/17 13:44:36;;;;;;;5.32;2.47;;;;;;;12.82;37.62;98065.75;10403890;28;20485;-70
2023/10/17 13:49:57;;;;;;;5.10;2.05;;;;;;;12.98;37.38;98063.25;10389835;28;20046;-71
2023/10/17 13:55:25;;;;;;;3.72;1.83;;;;;;;12.78;36.92;98059.88;10403513;28;20045;-71
2023/10/17 14:00:51;;;;;;;3.40;1.48;;;;;;;12.42;37.37;98044.28;10378298;28;20447;-70
2023/10/17 14:06:14;;;;;;;5.03;1.92;;;;;;;11.92;37.87;98053.59;10403840;28;20050;-70
2023/10/17 14:11:35;;;;;;;7.60;2.00;;;;;;;12.04;38.30;98053.66;10417266;28;20056;-70
2023/10/17 14:16:58;;;;;;;5.68;2.30;;;;;;;12.31;38.47;98051.28;10390176;28;20041;-70
2023/10/17 14:22:38;;;;;;;5.38;1.83;;;;;;;12.03;38.31;98049.41;10418250;28;20049;-71
2023/10/17 14:27:59;;;;;;;4.65;2.17;;;;;;;11.68;39.42;98041.47;10410582;28;20045;-71
2023/10/17 14:33:20;;;;;;;6.30;2.30;;;;;;;11.51;40.09;98036.13;10417115;28;20041;-70
2023/10/17 14:38:41;;;;;;;4.85;2.28;;;;;;;11.65;40.20;98028.69;10388286;28;20037;-70
2023/10/17 14:44:03;;;;;;;7.63;1.92;;;;;;;11.49;40.26;98024.81;10373993;28;20472;-71
2023/10/17 14:49:26;;;;;;;4.72;1.90;;;;;;;11.29;41.02;98012.97;10387932;28;20046;-71
2023/10/17 14:54:47;;;;;;;8.85;2.00;;;;;;;11.10;41.16;98016.56;10401737;28;20042;-71
2023/10/17 15:00:12;;;;;;;4.55;1.80;;;;;;;11.10;41.25;98013.75;10387317;28;20459;-71
2023/10/17 15:05:37;;;;;;;6.88;2.08;;;;;;;11.06;41.97;98010.66;10400828;28;20054;-71
2023/10/17 15:11:05;;;;;;;7.80;2.20;;;;;;;10.84;42.41;98020.28;10401700;28;20119;-70
2023/10/17 15:16:27;;;;;;;5.18;1.95;;;;;;;10.76;42.27;98014.13;10401129;28;20496;-70
2023/10/17 15:21:48;;;;;;;5.57;2.00;;;;;;;10.66;42.20;98008.56;10401222;28;20073;-71
2023/10/17 15:27:09;;;;;;;6.78;2.20;;;;;;;10.51;42.36;98004.00;10387000;28;20045;-70
2023/10/17 15:32:31;;;;;;;7.18;2.10;;;;;;;10.30;43.48;98003.88;10415402;28;20085;-71
2023/10/17 15:37:52;;;;;;;3.90;1.75;;;;;;;10.08;43.34;98008.53;10400503;28;20061;-71
2023/10/17 15:43:13;;;;;;;8.00;1.70;;;;;;;9.87;43.32;98016.72;10386905;28;20079;-71
2023/10/17 15:48:33;;;;;;;3.28;1.75;;;;;;;9.72;44.19;98023.28;10400587;28;20041;-71
2023/10/17 15:53:54;;;;;;;4.75;2.30;;;;;;;9.59;45.03;98023.69;10386638;28;20065;-71
2023/10/17 15:59:16;;;;;;;5.53;1.90;;;;;;;9.57;44.96;98017.97;10408341;28;20037;-71
2023/10/17 16:04:37;;;;;;;4.32;1.65;;;;;;;9.50;44.69;98019.56;10393823;28;20049;-72
2023/10/17 16:09:58;;;;;;;5.07;1.80;;;;;;;9.44;45.17;98016.31;10407675;28;20460;-71
2023/10/17 16:15:19;;;;;;;5.78;1.58;;;;;;;9.40;45.45;98022.31;10407672;28;20073;-71
2023/10/17 16:20:41;;;;;;;2.75;1.40;;;;;;;9.39;45.14;98011.75;10393777;28;20054;-70
2023/10/17 16:26:03;;;;;;;4.00;1.80;;;;;;;9.23;46.11;98002.88;10407439;28;20368;-71
2023/10/17 16:31:25;;;;;;;5.25;2.30;;;;;;;9.02;46.63;98014.53;10379726;28;20476;-71
2023/10/17 16:36:46;;;;;;;4.20;1.85;;;;;;;8.88;46.34;98024.56;10422264;28;20102;-72
2023/10/17 16:42:07;;;;;;;7.07;2.58;;;;;;;8.77;46.88;98036.94;10426332;28;20042;-71
2023/10/17 16:47:29;;;;;;;9.63;3.25;;;;;;;8.77;47.40;98028.56;10393752;28;20392;-71
2023/10/17 16:52:50;;;;;;;9.45;3.30;;;;;;;8.72;47.10;98046.28;10407321;28;20048;-70
2023/10/17 16:58:11;;;;;;;6.68;3.35;;;;;;;8.59;47.40;98043.84;10420849;28;20042;-70
2023/10/17 17:03:32;;;;;;;7.72;3.88;;;;;;;8.46;47.31;98046.97;10420807;28;20119;-71
2023/10/17 17:08:57;;;;;;;8.13;4.15;;;;;;;8.36;48.86;98048.94;10419779;28;20499;-71
2023/10/17 17:14:19;;;;;;;9.02;4.55;;;;;;;8.24;48.65;98043.84;10406150;28;20164;-70
2023/10/17 17:19:41;;;;;;;10.38;5.22;;;;;;;8.08;49.46;98042.50;10377826;28;20483;-70
2023/10/17 17:25:04;;;;;;;10.93;5.20;;;;;;;8.04;50.26;98048.47;10378314;28;20046;-71
2023/10/17 17:30:25;;;;;;;10.20;4.03;;;;;;;7.99;50.39;98034.81;10405253;28;20049;-71
2023/10/17 17:35:46;;;;;;;7.78;4.00;;;;;;;7.98;50.53;98033.34;10404150;28;20493;-70
2023/10/17 17:41:07;;;;;;;7.32;4.55;;;;;;;7.92;49.99;98035.63;10404540;28;20099;-71
2023/10/17 17:46:28;;;;;;;9.68;4.07;;;;;;;7.81;51.26;98036.09;10390575;28;20049;-70
2023/10/17 17:51:49;;;;;;;8.23;4.47;;;;;;;7.74;50.47;98030.03;10390097;28;20042;-71
2023/10/17 17:57:11;;;;;;;6.93;3.72;;;;;;;7.64;50.26;98018.09;10390115;28;20038;-71
2023/10/17 18:02:32;;;;;;;8.57;4.47;;;;;;;7.47;50.78;98027.09;10390083;28;20054;-71
2023/10/17 18:07:53;;;;;;;7.97;4.25;;;;;;;7.39;50.89;98011.81;10403545;28;20042;-71
2023/10/17 18:13:14;;;;;;;6.90;4.10;;;;;;;7.34;51.76;98019.06;10417489;28;20095;-71
2023/10/17 18:18:35;;;;;;;7.82;4.22;;;;;;;7.28;51.54;98013.00;10416509;28;20553;-71
2023/10/17 18:23:56;;;;;;;8.73;4.32;;;;;;;7.23;51.38;98018.75;10402482;28;20061;-71
2023/10/17 18:29:20;;;;;;;6.40;4.07;;;;;;;7.15;51.70;98014.03;10388746;28;20042;-71
2023/10/17 18:34:42;;;;;;;8.95;5.18;;;;;;;7.11;51.99;98013.66;10416842;28;20054;-71
2023/10/17 18:40:07;;;;;;;8.25;5.20;;;;;;;7.06;52.29;98016.66;10417010;28;20075;-71
2023/10/17 18:45:28;;;;;;;9.82;4.97;;;;;;;6.97;52.92;98011.72;10416577;28;20041;-70
2023/10/17 18:51:05;;;;;;;9.13;5.28;;;;;;;6.92;53.18;98012.66;10387561;28;20042;-70
2023/10/17 18:56:27;;;;;;;8.38;4.60;;;;;;;6.88;53.13;98021.41;10401512;28;20395;-71
2023/10/17 19:01:48;;;;;;;7.53;4.30;;;;;;;6.79;52.94;98033.09;10415927;28;20064;-71
2023/10/17 19:07:11;;;;;;;8.60;4.93;;;;;;;6.79;52.95;98019.22;10401295;28;20435;-71
2023/10/17 19:12:32;;;;;;;13.43;5.63;;;;;;;6.70;53.41;98026.09;10415798;28;20037;-71
2023/10/17 19:18:13;;;;;;;11.52;6.55;;;;;;;6.67;53.43;98045.91;10392380;28;20049;-71
2023/10/17 19:23:41;;;;;;;9.98;4.10;;;;;;;6.64;53.48;98039.44;10401813;28;20268;-71
2023/10/17 19:29:03;;;;;;;8.18;4.40;;;;;;;6.49;53.70;98045.78;10403459;28;20076;-70
2023/10/17 19:34:24;;;;;;;8.23;4.32;;;;;;;6.41;54.08;98020.13;10409544;28;20049;-71
2023/10/17 19:39:45;;;;;;;6.78;4.18;;;;;;;6.36;54.35;98007.19;10395345;28;20526;-71
2023/10/17 19:45:08;;;;;;;7.65;4.55;;;;;;;6.30;54.33;98001.88;10381368;28;20042;-71
2023/10/17 19:50:28;;;;;;;9.52;4.18;;;;;;;6.25;54.35;97990.97;10408894;28;20041;-70
2023/10/17 19:55:51;;;;;;;11.32;5.22;;;;;;;6.20;54.90;97998.22;10408586;28;20487;-71
2023/10/17 20:01:14;;;;;;;12.25;5.82;;;;;;;6.21;55.04;97999.69;10395450;28;20049;-70
2023/10/17 20:06:36;;;;;;;10.85;5.32;;;;;;;6.24;55.14;97993.00;10403701;28;20046;-71
2023/10/17 20:11:59;;;;;;;8.23;5.20;;;;;;;6.20;55.05;97989.16;10416755;28;20170;-70
2023/10/17 20:17:20;;;;;;;11.38;5.20;;;;;;;6.20;54.79;97998.22;10422687;28;20506;-71
2023/10/17 20:22:42;;;;;;;15.48;5.57;;;;;;;6.21;55.14;97993.41;10407355;28;20050;-71
2023/10/17 20:28:05;;;;;;;9.98;5.80;;;;;;;6.23;55.51;97988.75;10407916;28;20237;-70
2023/10/17 20:33:27;;;;;;;9.50;5.00;;;;;;;6.21;55.78;97988.59;10379375;28;20044;-71
2023/10/17 20:38:49;;;;;;;13.05;7.47;;;;;;;6.15;55.59;98003.94;10407260;28;20046;-71
2023/10/17 20:44:10;;;;;;;9.88;5.90;;;;;;;6.01;55.66;97998.63;10392193;28;20042;-71
2023/10/17 20:49:34;;;;;;;8.73;5.28;;;;;;;5.96;56.21;97988.47;10421257;28;20041;-71
2023/10/17 20:54:54;;;;;;;7.90;5.18;;;;;;;5.93;56.27;97991.63;10392167;28;20107;-71
2023/10/17 21:00:17;;;;;;;10.18;5.47;;;;;;;5.84;56.66;97990.13;10392098;28;20472;-71
2023/10/17 21:05:38;;;;;;;8.65;5.47;;;;;;;5.75;56.60;97993.47;10392026;28;20053;-71
2023/10/17 21:10:59;;;;;;;7.07;5.25;;;;;;;5.61;56.82;97992.94;10405224;28;20049;-71
2023/10/17 21:16:21;;;;;;;8.82;5.43;;;;;;;5.39;57.25;97977.81;10405419;28;20391;-71
2023/10/17 21:21:44;;;;;;;10.05;5.68;;;;;;;5.22;57.45;97979.66;10420160;28;20045;-70
2023/10/17 21:27:06;;;;;;;9.87;5.93;;;;;;;5.11;57.48;97980.75;10391700;28;20100;-71
2023/10/17 21:32:27;;;;;;;9.32;5.93;;;;;;;5.11;58.09;97973.19;10419400;28;20107;-71
2023/10/17 21:37:47;;;;;;;11.02;6.03;;;;;;;5.09;57.92;97963.97;10404299;28;20128;-71
2023/10/17 21:43:11;;;;;;;8.88;5.30;;;;;;;5.04;58.07;97945.53;10404646;28;20060;-71
2023/10/17 21:48:32;;;;;;;10.75;5.43;;;;;;;4.96;58.47;97930.94;10403953;28;20432;-70
2023/10/17 21:53:54;;;;;;;10.30;6.25;;;;;;;4.77;58.95;97928.53;10403683;28;20046;-71
2023/10/17 21:59:14;;;;;;;9.82;6.15;;;;;;;4.82;59.19;97933.88;10403634;28;20042;-71
2023/10/17 22:04:39;;;;;;;11.25;6.05;;;;;;;4.79;59.00;97937.75;10403037;28;20061;-70
2023/10/17 22:10:02;;;;;;;11.18;6.22;;;;;;;4.76;59.09;97938.84;10403826;28;20045;-71
2023/10/17 22:15:24;;;;;;;12.35;7.35;;;;;;;4.77;59.86;97932.03;10402670;28;20117;-71
2023/10/17 22:20:45;;;;;;;11.27;6.82;;;;;;;4.72;59.54;97926.66;10375740;28;20123;-71
2023/10/17 22:26:06;;;;;;;12.55;6.75;;;;;;;4.66;60.55;97929.63;10402262;28;20049;-70
2023/10/17 22:31:28;;;;;;;12.48;7.28;;;;;;;4.67;60.06;97927.59;10388726;28;20052;-71
2023/10/17 22:36:48;;;;;;;12.88;7.22;;;;;;;4.70;61.18;97937.53;10375129;28;20041;-71
2023/10/17 22:42:10;;;;;;;13.60;7.18;;;;;;;4.65;60.87;97939.22;10416582;28;20049;-70
2023/10/17 22:47:31;;;;;;;12.18;7.45;;;;;;;4.67;61.56;97936.63;10388169;28;20428;-71
2023/10/17 22:52:51;;;;;;;11.50;6.85;;;;;;;4.68;61.21;97940.13;10387768;28;20041;-71
2023/10/17 22:58:12;;;;;;;10.23;6.90;;;;;;;4.67;60.45;97939.38;10401700;28;20091;-71
2023/10/17 23:03:33;;;;;;;12.20;6.85;;;;;;;4.60;60.78;97949.13;10415769;28;20507;-70
2023/10/17 23:08:54;;;;;;;15.18;9.07;;;;;;;4.54;61.62;97942.31;10401159;28;20065;-73
2023/10/17 23:14:15;;;;;;;13.98;8.43;;;;;;;4.48;61.71;97936.94;10387338;28;20422;-72
2023/10/17 23:19:38;;;;;;;11.27;6.25;;;;;;;4.43;61.59;97943.38;10400801;28;20483;-72
2023/10/17 23:24:59;;;;;;;14.25;6.72;;;;;;;4.29;61.71;97939.28;10387506;28;20073;-72
2023/10/17 23:30:20;;;;;;;11.15;6.95;;;;;;;4.23;62.20;97944.97;10400617;28;20046;-72
2023/10/17 23:35:42;;;;;;;10.35;6.60;;;;;;;4.08;62.49;97939.41;10386908;28;20045;-72
2023/10/17 23:41:04;;;;;;;13.00;7.03;;;;;;;3.95;62.66;97937.47;10386982;28;20100;-72
2023/10/17 23:46:25;;;;;;;12.02;7.18;;;;;;;3.97;63.09;97931.44;10373045;28;20037;-72
2023/10/17 23:51:46;;;;;;;17.38;7.10;;;;;;;3.98;63.65;97935.69;10400301;28;20046;-73
2023/10/17 23:57:07;;;;;;;14.30;7.45;;;;;;;4.05;63.39;97929.41;10372997;28;20045;-72
